Time;durP1;ratioP1;P1;durP2;ratioP2;P2;SDS_P1;SDS_P2;PMS_P1;PMS_P2;Temp;Humidity;BMP_temperature;BMP_pressure;BME280_temperature;BME280_humidity;BME280_pressure;Samples;Min_cycle;Max_cycle;Signal;HPM_P1;HPM_P2
2022/09/21 00:01:15;;;;;;;63.00;59.78;;;;;;;19.43;72.36;100960.72;5014790;28;104024;-54
2022/09/21 00:03:43;;;;;;;60.60;57.55;;;;;;;19.43;72.20;100971.78;5015143;28;102026;-54
2022/09/21 00:06:12;;;;;;;61.20;58.17;;;;;;;19.43;71.93;100966.25;5010926;28;102384;-55
2022/09/21 00:08:40;;;;;;;;;;;;;;;19.43;72.19;100960.72;5011401;28;102224;-56
2022/09/21 00:11:11;;;;;;;49.13;46.67;;;;;;;19.44;72.30;100967.09;5000923;28;104019;-54
2022/09/21 00:13:37;;;;;;;55.15;52.25;;;;;;;19.43;71.96;100960.72;5015441;28;102266;-55
2022/09/21 00:16:05;;;;;;;62.70;59.53;;;;;;;19.43;72.34;100966.25;5013008;28;102052;-56
2022/09/21 00:18:33;;;;;;;61.40;58.33;;;;;;;19.43;72.13;100966.25;5016608;28;103414;-54
2022/09/21 00:20:59;;;;;;;60.75;57.70;;;;;;;19.43;72.48;100959.94;5014466;28;104061;-54
2022/09/21 00:23:26;;;;;;;61.10;57.90;;;;;;;19.43;72.05;100965.44;5015073;28;101886;-54
2022/09/21 00:26:03;;;;;;;60.10;57.05;;;;;;;19.42;71.98;100963.84;5014470;28;103335;-54
2022/09/21 00:28:30;;;;;;;61.95;58.85;;;;;;;19.42;72.03;100966.59;5015645;28;102791;-54
2022/09/21 00:31:01;;;;;;;63.72;60.53;;;;;;;19.42;72.45;100963.84;5014085;28;103942;-54
2022/09/21 00:33:27;;;;;;;59.67;56.65;;;;;;;19.42;72.09;100959.13;5016002;28;102131;-54
2022/09/21 00:35:54;;;;;;;64.35;61.08;;;;;;;19.42;72.25;100959.13;5006754;28;102223;-54
2022/09/21 00:38:20;;;;;;;63.60;60.40;;;;;;;19.41;72.14;100965.78;4996736;28;102246;-54
2022/09/21 00:40:47;;;;;;;64.15;60.92;;;;;;;19.41;72.37;100957.50;5011511;28;104072;-56
2022/09/21 00:43:16;;;;;;;65.00;61.75;;;;;;;19.41;72.48;100956.69;5012408;28;103790;-54
2022/09/21 00:45:45;;;;;;;58.92;55.90;;;;;;;19.41;72.19;100963.03;5002594;28;101878;-54
2022/09/21 00:48:12;;;;;;;65.30;61.88;;;;;;;19.41;72.28;100967.75;5011864;28;102200;-54
2022/09/21 00:50:45;;;;;;;67.82;64.43;;;;;;;19.40;72.44;100966.94;5001012;28;104175;-55
2022/09/21 00:53:12;;;;;;;62.13;58.97;;;;;;;19.40;72.03;100964.19;4997211;28;102477;-54
2022/09/21 00:55:42;;;;;;;64.75;61.50;;;;;;;19.40;72.07;100961.41;5004874;28;102279;-54
2022/09/21 00:58:14;;;;;;;57.30;54.35;;;;;;;19.41;72.10;100967.75;5015576;28;102970;-55
2022/09/21 01:00:42;;;;;;;67.32;63.95;;;;;;;19.41;72.17;100964.97;5014288;28;103894;-55
2022/09/21 01:03:10;;;;;;;52.17;49.50;;;;;;;19.40;72.13;100966.94;5003712;28;102220;-48
2022/09/21 01:05:37;;;;;;;59.47;56.50;;;;;;;19.41;71.98;100953.94;4995636;28;102262;-54
2022/09/21 01:08:06;;;;;;;64.63;61.33;;;;;;;19.40;72.29;100950.38;5014809;28;102380;-54
2022/09/21 01:10:37;;;;;;;;;;;;;;;19.39;72.05;100954.25;4993941;28;103833;-54
2022/09/21 01:13:11;;;;;;;55.08;52.22;;;;;;;19.39;72.33;100950.69;4992548;28;102207;-54
2022/09/21 01:15:48;;;;;;;59.45;56.42;;;;;;;19.39;72.22;100948.72;5000955;28;102414;-54
2022/09/21 01:18:20;;;;;;;61.08;57.95;;;;;;;19.39;72.22;100945.97;4986618;28;102112;-54
2022/09/21 01:21:14;;;;;;;64.93;61.67;;;;;;;19.37;72.24;100951.03;4989884;28;104005;-55
2022/09/21 01:24:01;;;;;;;60.72;57.63;;;;;;;19.39;72.23;100948.72;4984900;28;102356;-54
2022/09/21 01:26:44;;;;;;;50.08;47.45;;;;;;;19.39;72.20;100959.75;4993255;28;103744;-54
2022/09/21 01:29:22;;;;;;;67.43;64.00;;;;;;;19.39;72.12;100954.25;4992967;28;105015;-55
2022/09/21 01:31:53;;;;;;;55.83;52.90;;;;;;;19.39;72.09;100959.75;4997243;28;104309;-54
2022/09/21 01:34:26;;;;;;;61.63;58.50;;;;;;;19.38;72.14;100946.31;4997043;28;102231;-54
2022/09/21 01:36:57;;;;;;;58.53;55.50;;;;;;;19.38;72.28;100949.06;4997394;28;102215;-55
2022/09/21 01:39:25;;;;;;;44.38;42.13;;;;;;;19.37;72.17;100947.44;4999207;28;102282;-54
2022/09/21 01:41:54;;;;;;;48.42;45.95;;;;;;;19.38;72.29;100958.16;4997268;28;107973;-54
2022/09/21 01:44:26;;;;;;;43.47;41.28;;;;;;;19.38;72.26;100955.41;4985160;28;102885;-54
2022/09/21 01:46:55;;;;;;;43.70;41.47;;;;;;;19.36;72.12;100952.13;5003218;28;102018;-54
2022/09/21 01:49:28;;;;;;;44.65;42.38;;;;;;;19.36;72.44;100957.66;4998901;28;102148;-55
2022/09/21 01:52:01;;;;;;;39.90;37.85;;;;;;;19.36;72.44;100954.91;4996374;28;103914;-54
2022/09/21 01:54:32;;;;;;;46.35;43.95;;;;;;;19.37;71.98;100959.31;5002000;28;102235;-54
2022/09/21 01:57:04;;;;;;;43.45;41.17;;;;;;;19.36;72.13;100957.66;5017303;28;102039;-55
2022/09/21 01:59:45;;;;;;;46.30;43.97;;;;;;;19.37;72.29;100959.31;4989380;28;102266;-54
2022/09/21 02:02:17;;;;;;;43.38;41.25;;;;;;;19.36;72.09;100960.41;5013941;28;103902;-55
2022/09/21 02:04:43;;;;;;;39.40;37.33;;;;;;;19.36;72.23;100957.66;5004863;28;103658;-55
2022/09/21 02:07:10;;;;;;;66.50;63.15;;;;;;;19.36;72.41;100954.91;4998255;28;102216;-54
2022/09/21 02:09:38;;;;;;;;;;;;;;;19.35;72.07;100953.28;5009518;28;102265;-54
2022/09/21 02:12:05;;;;;;;56.55;53.67;;;;;;;19.36;72.17;100954.09;5011067;28;103858;-54
2022/09/21 02:14:37;;;;;;;59.92;56.90;;;;;;;19.35;72.49;100956.03;5017120;28;102076;-54
2022/09/21 02:17:16;;;;;;;64.00;60.75;;;;;;;19.35;72.17;100964.31;5017001;28;102192;-54
2022/09/21 02:19:48;;;;;;;71.38;67.80;;;;;;;19.34;72.18;100957.19;5014998;28;103063;-55
2022/09/21 02:22:23;;;;;;;56.03;53.20;;;;;;;19.35;72.13;100961.56;5017477;28;103948;-55
2022/09/21 02:25:00;;;;;;;52.97;50.25;;;;;;;19.34;72.48;100962.69;5003345;28;102011;-54
2022/09/21 02:27:35;;;;;;;48.08;45.67;;;;;;;19.35;72.13;100964.31;5016750;28;102344;-54
2022/09/21 02:30:07;;;;;;;53.33;50.65;;;;;;;19.34;72.21;100968.22;5016574;28;102318;-55
2022/09/21 02:32:42;;;;;;;48.88;46.38;;;;;;;19.35;72.54;100977.31;5015801;28;108198;-52
2022/09/21 02:35:16;;;;;;;68.40;64.97;;;;;;;19.35;72.47;100985.59;5017374;28;102314;-54
2022/09/21 02:37:48;;;;;;;66.93;63.58;;;;;;;19.33;72.23;100987.84;5015615;28;102262;-54
2022/09/21 02:40:22;;;;;;;59.85;56.75;;;;;;;19.34;72.23;100995.81;5017511;28;102466;-54
2022/09/21 02:42:53;;;;;;;49.80;47.30;;;;;;;19.34;72.37;100984.78;5010832;28;103927;-54
2022/09/21 02:45:24;;;;;;;50.85;48.25;;;;;;;19.34;72.32;100989.50;5003660;28;102082;-54
2022/09/21 02:47:58;;;;;;;65.38;62.13;;;;;;;19.33;72.33;100990.59;5014860;28;102135;-54
2022/09/21 02:50:32;;;;;;;68.53;65.03;;;;;;;19.32;72.34;100987.03;5013475;28;102458;-55
2022/09/21 02:53:01;;;;;;;69.50;66.03;;;;;;;19.33;72.39;100983.16;4997693;28;103967;-54
2022/09/21 02:55:30;;;;;;;79.43;75.45;;;;;;;19.34;72.42;100983.97;5015841;28;102319;-55
2022/09/21 02:58:00;;;;;;;71.70;68.18;;;;;;;19.33;72.42;100987.84;5015994;28;102044;-54
2022/09/21 03:00:28;;;;;;;68.00;64.57;;;;;;;19.32;72.12;100992.56;5017968;28;102219;-55
2022/09/21 03:02:55;;;;;;;66.30;62.92;;;;;;;19.32;72.56;100983.47;5011616;28;103968;-55
2022/09/21 03:05:22;;;;;;;73.13;69.45;;;;;;;19.32;72.32;100987.03;5010640;28;101984;-54
2022/09/21 03:07:48;;;;;;;65.90;62.55;;;;;;;19.32;72.27;100986.22;5015987;28;102730;-54
2022/09/21 03:10:15;;;;;;;66.60;63.25;;;;;;;19.30;72.50;100981.03;5017288;28;102371;-54
2022/09/21 03:12:43;;;;;;;70.45;66.95;;;;;;;19.31;72.22;100985.44;5012475;28;104027;-54
2022/09/21 03:15:10;;;;;;;68.83;65.40;;;;;;;19.31;72.18;100974.38;5002317;28;102343;-54
2022/09/21 03:17:38;;;;;;;75.70;71.93;;;;;;;19.30;72.14;100978.28;5000574;28;103461;-54
2022/09/21 03:20:06;;;;;;;67.05;63.72;;;;;;;19.30;72.31;100983.81;5017270;28;102277;-54
2022/09/21 03:22:33;;;;;;;72.90;69.20;;;;;;;19.31;72.46;100990.13;5006868;28;104892;-54
2022/09/21 03:24:59;;;;;;;73.25;69.50;;;;;;;19.30;72.56;100978.28;5015859;28;102016;-54
2022/09/21 03:27:26;;;;;;;74.50;70.78;;;;;;;19.29;72.51;100975.84;5006941;28;102406;-54
2022/09/21 03:29:53;;;;;;;73.07;69.43;;;;;;;19.28;72.32;100980.53;5016488;28;102377;-54
2022/09/21 03:32:20;;;;;;;72.75;69.10;;;;;;;19.28;72.42;100975.03;5007465;28;103928;-54
2022/09/21 03:34:47;;;;;;;61.50;58.40;;;;;;;19.29;72.59;100984.13;4999286;28;102293;-54
2022/09/21 03:37:15;;;;;;;63.75;60.55;;;;;;;19.28;72.44;100980.53;5013362;28;103642;-54
2022/09/21 03:39:42;;;;;;;47.20;44.70;;;;;;;19.28;72.27;100983.31;5013209;28;102639;-54
2022/09/21 03:42:09;;;;;;;42.72;40.45;;;;;;;19.28;72.22;100982.50;5008716;28;103919;-54
2022/09/21 03:44:36;;;;;;;40.83;38.67;;;;;;;19.28;72.25;100985.25;5015394;28;103480;-55
2022/09/21 03:47:05;;;;;;;45.20;42.85;;;;;;;19.27;72.60;100978.94;5015200;28;102919;-54
2022/09/21 03:49:33;;;;;;;68.80;65.35;;;;;;;19.27;72.55;100992.72;5015878;28;102563;-54
2022/09/21 03:52:02;;;;;;;73.65;70.00;;;;;;;19.27;72.21;100989.97;5014491;28;104019;-54
2022/09/21 03:54:28;;;;;;;74.78;71.05;;;;;;;19.28;72.41;100999.84;5004977;28;103443;-55
2022/09/21 03:56:55;;;;;;;74.57;70.82;;;;;;;19.27;72.67;101003.75;5008960;28;102501;-54
2022/09/21 03:59:21;;;;;;;70.25;66.72;;;;;;;19.28;72.52;101002.63;5016274;28;102677;-55
2022/09/21 04:01:47;;;;;;;72.30;68.63;;;;;;;19.27;72.23;101009.28;5012726;28;104102;-55
2022/09/21 04:04:15;;;;;;;70.40;66.88;;;;;;;19.27;72.42;101003.75;5016932;28;102430;-54
2022/09/21 04:06:45;;;;;;;70.57;67.03;;;;;;;19.27;72.20;101012.03;5015090;28;102504;-54
2022/09/21 04:09:12;;;;;;;73.38;69.70;;;;;;;19.26;72.40;101010.44;5017806;28;102593;-54
2022/09/21 04:11:39;;;;;;;74.25;70.47;;;;;;;19.26;72.35;101010.44;5010914;28;107953;-52
2022/09/21 04:14:06;;;;;;;79.05;75.07;;;;;;;19.27;72.45;101017.56;5016458;28;101900;-53
2022/09/21 04:16:33;;;;;;;77.55;73.68;;;;;;;19.27;72.41;101017.56;5015552;28;102290;-54
2022/09/21 04:18:59;;;;;;;76.15;72.35;;;;;;;19.28;72.58;101021.94;5016965;28;102507;-53
2022/09/21 04:21:26;;;;;;;73.82;70.13;;;;;;;19.26;72.55;101026.16;5015598;28;103937;-55
2022/09/21 04:23:52;;;;;;;79.18;75.20;;;;;;;19.28;72.21;101029.41;5015679;28;101964;-53
2022/09/21 04:26:22;;;;;;;72.32;68.63;;;;;;;19.27;72.41;101025.84;5015755;28;101990;-55
2022/09/21 04:28:49;;;;;;;74.57;70.85;;;;;;;19.26;72.41;101024.22;5008682;28;102213;-54
2022/09/21 04:31:16;;;;;;;70.93;67.22;;;;;;;19.26;72.33;101021.47;5015313;28;103995;-54
2022/09/21 04:33:42;;;;;;;71.13;67.55;;;;;;;19.26;72.68;101032.50;5015832;28;102509;-54
2022/09/21 04:36:09;;;;;;;75.45;71.68;;;;;;;19.27;72.54;101033.31;4995446;28;102571;-55
2022/09/21 04:38:35;;;;;;;70.28;66.72;;;;;;;19.27;72.20;101039.63;4996906;28;102563;-55
2022/09/21 04:41:02;;;;;;;70.80;67.15;;;;;;;19.27;72.22;101030.56;4995766;28;104048;-54
2022/09/21 04:43:30;;;;;;;79.53;75.43;;;;;;;19.27;72.25;101036.88;5005806;28;102354;-54
2022/09/21 04:45:57;;;;;;;71.05;67.50;;;;;;;19.28;72.39;101041.25;4995266;28;101942;-54
2022/09/21 04:48:23;;;;;;;78.32;74.40;;;;;;;19.28;72.57;101046.78;4996311;28;102192;-54
2022/09/21 04:50:51;;;;;;;78.80;74.82;;;;;;;19.28;72.32;101045.97;4999553;28;103900;-55
2022/09/21 04:53:17;;;;;;;75.15;71.35;;;;;;;19.27;72.38;101039.63;5015780;28;102574;-54
2022/09/21 04:55:45;;;;;;;75.50;71.57;;;;;;;19.28;72.28;101041.25;5010393;28;102273;-54
2022/09/21 04:58:11;;;;;;;75.65;71.80;;;;;;;19.28;72.59;101032.97;4995637;28;103132;-55
2022/09/21 05:00:39;;;;;;;74.10;70.40;;;;;;;19.28;72.43;101032.97;5000279;28;104152;-54
2022/09/21 05:03:05;;;;;;;76.43;72.63;;;;;;;19.29;72.31;101033.78;5009591;28;102344;-54
2022/09/21 05:05:32;;;;;;;72.05;68.43;;;;;;;19.31;72.51;101034.28;4995120;28;102404;-54
2022/09/21 05:07:58;;;;;;;74.70;70.97;;;;;;;19.31;72.36;101035.09;4996197;28;102797;-54
2022/09/21 05:10:25;;;;;;;75.53;71.78;;;;;;;19.32;72.70;101025.66;4994888;28;103959;-54
2022/09/21 05:12:53;;;;;;;68.53;65.07;;;;;;;19.33;72.66;101027.31;4991378;28;102393;-54
2022/09/21 05:15:21;;;;;;;67.25;63.88;;;;;;;19.33;73.30;101026.47;4995349;28;101943;-54
2022/09/21 05:17:49;;;;;;;72.10;68.47;;;;;;;19.35;73.57;101022.28;4995997;28;102219;-55
2022/09/21 05:20:15;;;;;;;65.22;61.97;;;;;;;19.36;73.44;101025.84;4981626;28;103953;-54
2022/09/21 05:22:42;;;;;;;63.33;60.15;;;;;;;19.38;73.59;101027.16;4991873;28;102659;-54
2022/09/21 05:25:09;;;;;;;64.90;61.63;;;;;;;19.38;73.27;101023.59;4994827;28;102472;-54
2022/09/21 05:27:35;;;;;;;53.47;50.78;;;;;;;19.39;73.53;101028.75;4998956;28;102386;-54
2022/09/21 05:30:03;;;;;;;50.70;48.10;;;;;;;19.39;73.40;101026.00;4994163;28;103932;-54
2022/09/21 05:32:41;;;;;;;52.30;49.60;;;;;;;19.41;73.21;101022.94;4994866;28;102422;-54
2022/09/21 05:35:17;;;;;;;49.35;46.83;;;;;;;19.42;73.08;101030.88;4993679;28;102159;-54
2022/09/21 05:37:50;;;;;;;41.97;39.83;;;;;;;19.41;72.79;101020.97;4993556;28;102514;-54
2022/09/21 05:40:18;;;;;;;85.40;81.10;;;;;;;19.42;72.99;101022.59;4984778;28;103954;-55
2022/09/21 05:42:45;;;;;;;81.93;77.78;;;;;;;19.43;72.94;101015.94;4993291;28;102627;-54
2022/09/21 05:45:14;;;;;;;84.03;79.85;;;;;;;19.43;72.96;101020.66;4989516;28;102112;-54
2022/09/21 05:47:55;;;;;;;87.43;83.07;;;;;;;19.42;72.83;101025.38;4994605;28;102260;-54
2022/09/21 05:50:34;;;;;;;78.28;74.35;;;;;;;19.43;72.82;101024.22;4993167;28;103783;-54
2022/09/21 05:53:14;;;;;;;70.47;66.93;;;;;;;19.44;73.09;101027.81;5004952;28;102544;-54
2022/09/21 05:55:51;;;;;;;73.05;69.43;;;;;;;19.44;73.01;101020.34;5002583;28;102296;-54
2022/09/21 05:58:24;;;;;;;76.68;72.72;;;;;;;19.44;73.01;101020.34;5013387;28;102450;-54
2022/09/21 06:01:04;;;;;;;74.60;70.82;;;;;;;19.45;72.46;101024.72;5014331;28;104043;-54
2022/09/21 06:03:34;;;;;;;76.60;72.72;;;;;;;19.45;72.48;101023.91;5013169;28;102521;-54
2022/09/21 06:06:03;;;;;;;80.60;76.63;;;;;;;19.44;72.41;101020.34;4999377;28;102459;-54
2022/09/21 06:08:30;;;;;;;77.68;73.78;;;;;;;19.45;72.68;101021.97;5003476;28;102244;-55
2022/09/21 06:10:57;;;;;;;77.55;73.68;;;;;;;19.45;72.38;101019.19;5000277;28;103886;-54
2022/09/21 06:13:23;;;;;;;74.20;70.47;;;;;;;19.47;72.22;101020.81;5005664;28;102238;-54
2022/09/21 06:15:50;;;;;;;78.45;74.53;;;;;;;19.47;72.47;101027.13;5012206;28;102241;-54
2022/09/21 06:18:16;;;;;;;81.97;77.85;;;;;;;19.47;72.33;101018.06;5012992;28;102229;-55
2022/09/21 06:20:43;;;;;;;73.78;70.03;;;;;;;19.48;72.35;101027.97;5015118;28;104450;-58
2022/09/21 06:23:14;;;;;;;50.35;47.75;;;;;;;19.48;72.21;101025.22;5010886;28;101941;-55
2022/09/21 06:25:40;;;;;;;51.78;49.15;;;;;;;19.48;72.32;101023.28;5001302;28;101935;-55
2022/09/21 06:28:09;;;;;;;44.58;42.33;;;;;;;19.49;72.23;101029.59;5005365;28;102115;-54
2022/09/21 06:30:37;;;;;;;38.53;36.55;;;;;;;19.50;71.90;101042.25;5005973;28;103887;-54
2022/09/21 06:33:05;;;;;;;61.92;58.80;;;;;;;19.51;72.18;101032.81;5016037;28;102497;-54
2022/09/21 06:35:33;;;;;;;67.93;64.50;;;;;;;19.51;71.83;101038.34;4999373;28;102223;-55
2022/09/21 06:38:01;;;;;;;64.50;61.30;;;;;;;19.52;71.73;101029.75;5006044;28;102871;-54
2022/09/21 06:40:31;;;;;;;81.03;77.00;;;;;;;19.52;71.76;101035.28;5013773;28;104068;-54
2022/09/21 06:42:58;;;;;;;74.25;70.53;;;;;;;19.53;72.03;101025.84;5010993;28;101988;-54
2022/09/21 06:45:25;;;;;;;75.15;71.35;;;;;;;19.54;71.78;101033.00;5008885;28;102483;-54
2022/09/21 06:47:52;;;;;;;77.60;73.70;;;;;;;19.54;71.88;101038.50;5010112;28;102724;-54
2022/09/21 06:50:19;;;;;;;73.07;69.40;;;;;;;19.56;71.91;101029.94;5001901;28;104041;-55
2022/09/21 06:52:45;;;;;;;77.75;73.82;;;;;;;19.56;71.82;101025.22;5015015;28;102210;-54
2022/09/21 06:55:13;;;;;;;69.53;65.90;;;;;;;19.45;68.80;101024.72;5013978;28;102148;-52
2022/09/21 06:57:42;;;;;;;68.30;64.88;;;;;;;19.47;71.52;101020.81;5017991;28;102551;-54
2022/09/21 07:00:11;;;;;;;66.70;63.35;;;;;;;19.52;71.30;101031.72;5015551;28;104049;-54
2022/09/21 07:02:42;;;;;;;66.32;62.72;;;;;;;19.54;71.44;101030.22;5015843;28;101989;-54
2022/09/21 07:05:08;;;;;;;66.72;63.35;;;;;;;19.55;71.16;101031.06;5013550;28;104831;-55
2022/09/21 07:07:35;;;;;;;67.53;63.97;;;;;;;19.56;71.19;101033.50;5017124;28;102210;-54
2022/09/21 07:10:03;;;;;;;75.05;71.20;;;;;;;19.58;71.00;101033.16;5008611;28;104028;-54
2022/09/21 07:12:33;;;;;;;66.47;63.10;;;;;;;19.59;70.95;101024.56;5011272;28;102224;-54
2022/09/21 07:15:01;;;;;;;68.65;65.15;;;;;;;19.60;71.26;101025.38;5013433;28;102442;-54
2022/09/21 07:17:30;;;;;;;62.63;59.30;;;;;;;19.61;71.24;101016.75;5015157;28;102359;-53
2022/09/21 07:19:57;;;;;;;69.38;65.90;;;;;;;19.62;71.12;101012.06;5006716;28;103994;-55
2022/09/21 07:22:23;;;;;;;71.63;67.63;;;;;;;19.64;71.13;101009.81;5012013;28;102476;-54
2022/09/21 07:24:50;;;;;;;71.25;67.70;;;;;;;19.66;71.17;101013.06;5010498;28;102370;-54
2022/09/21 07:27:16;;;;;;;63.00;59.80;;;;;;;19.67;70.97;101014.69;5006517;28;102175;-54
2022/09/21 07:29:42;;;;;;;67.80;64.38;;;;;;;19.68;71.07;101016.31;4994885;28;104905;-54
2022/09/21 07:32:11;;;;;;;61.53;58.20;;;;;;;19.70;71.20;101013.22;5010468;28;102278;-56
2022/09/21 07:34:39;;;;;;;65.90;62.58;;;;;;;19.70;71.20;101013.22;5008928;28;102017;-54
2022/09/21 07:37:06;;;;;;;71.32;67.68;;;;;;;19.71;71.41;101015.66;5009062;27;103136;-54
2022/09/21 07:39:32;;;;;;;72.72;69.07;;;;;;;19.72;71.22;101014.50;5025332;27;103866;-54
2022/09/21 07:41:59;;;;;;;64.10;60.78;;;;;;;19.74;71.22;101012.25;5013704;28;102532;-53
2022/09/21 07:44:25;;;;;;;68.20;64.47;;;;;;;19.74;71.14;101015.00;5011901;28;102373;-54
2022/09/21 07:46:52;;;;;;;75.38;71.50;;;;;;;19.74;71.29;101006.72;5012349;28;103011;-54
2022/09/21 07:49:20;;;;;;;72.57;68.93;;;;;;;19.76;71.14;101009.16;5010596;28;103990;-54
2022/09/21 07:51:46;;;;;;;70.05;66.55;;;;;;;19.76;71.24;101018.25;5009491;28;102364;-54
2022/09/21 07:54:14;;;;;;;70.85;67.32;;;;;;;19.77;71.00;101011.59;5012899;28;102616;-54
2022/09/21 07:56:41;;;;;;;63.47;60.10;;;;;;;19.78;71.28;101015.97;5014554;28;102738;-53
2022/09/21 07:59:10;;;;;;;68.80;65.07;;;;;;;19.77;71.30;101011.59;5009089;28;103937;-55
2022/09/21 08:01:38;;;;;;;65.10;61.70;;;;;;;19.78;71.14;101004.94;5010287;28;101905;-54
2022/09/21 08:04:07;;;;;;;68.82;65.38;;;;;;;19.78;71.20;101007.69;5013004;28;101916;-54
2022/09/21 08:06:38;;;;;;;65.53;62.28;;;;;;;19.80;70.89;101007.34;5018312;28;102107;-55
2022/09/21 08:09:05;;;;;;;65.68;62.25;;;;;;;19.80;71.07;101002.66;5013820;27;103919;-54
2022/09/21 08:11:32;;;;;;;60.28;57.10;;;;;;;19.81;71.03;101004.28;5003205;28;102081;-54
2022/09/21 08:14:00;;;;;;;62.42;59.08;;;;;;;19.82;70.49;101011.41;5013002;28;102337;-54
2022/09/21 08:16:30;;;;;;;60.83;57.50;;;;;;;19.82;70.57;101002.31;5014414;28;102193;-54
2022/09/21 08:18:56;;;;;;;65.72;62.38;;;;;;;19.83;70.56;101006.69;5007764;28;103971;-54
2022/09/21 08:21:23;;;;;;;53.28;50.60;;;;;;;19.84;70.48;101003.63;5013531;28;102591;-54
2022/09/21 08:23:51;;;;;;;59.20;56.22;;;;;;;19.84;70.43;101014.69;5013662;28;102981;-54
2022/09/21 08:26:19;;;;;;;57.35;54.47;;;;;;;19.85;70.53;101016.28;5013120;28;102507;-53
2022/09/21 08:28:49;;;;;;;51.13;48.47;;;;;;;19.87;70.62;101005.75;5011728;28;103924;-54
2022/09/21 08:31:18;;;;;;;59.47;56.50;;;;;;;19.85;70.40;101010.78;5011460;28;102540;-54
2022/09/21 08:33:45;;;;;;;;;;;;;;;19.83;70.33;101018.56;5004581;28;102191;-53
2022/09/21 08:36:11;;;;;;;49.40;46.88;;;;;;;19.81;70.42;101012.56;5012577;28;102172;-53
2022/09/21 08:38:38;;;;;;;48.60;46.03;;;;;;;19.80;70.71;101012.88;5011155;28;103953;-54
2022/09/21 08:41:15;;;;;;;51.03;48.42;;;;;;;19.80;70.65;101019.25;5012749;28;102672;-54
2022/09/21 08:43:43;;;;;;;49.47;46.88;;;;;;;19.79;70.35;101011.25;5001955;28;102500;-54
2022/09/21 08:46:14;;;;;;;56.65;53.67;;;;;;;19.79;70.48;101017.59;5013978;28;102527;-54
2022/09/21 08:48:45;;;;;;;53.67;50.95;;;;;;;19.78;70.45;101015.16;5010702;28;104035;-53
2022/09/21 08:51:17;;;;;;;53.72;51.05;;;;;;;19.77;70.60;101014.38;5011254;28;102276;-55
2022/09/21 08:53:46;;;;;;;50.25;47.58;;;;;;;19.77;70.34;101019.88;5001488;28;104179;-54
2022/09/21 08:56:15;;;;;;;51.70;49.08;;;;;;;19.76;70.51;101018.25;5011884;28;102482;-54
2022/09/21 08:58:42;;;;;;;51.20;48.60;;;;;;;19.77;70.10;101019.88;5007791;28;103955;-54
2022/09/21 09:01:38;;;;;;;54.35;51.65;;;;;;;19.77;70.36;101019.88;5011647;28;103267;-53
2022/09/21 09:04:42;;;;;;;45.08;42.60;;;;;;;19.77;69.83;101008.84;5010131;28;102182;-52
2022/09/21 09:07:25;;;;;;;43.75;41.55;;;;;;;19.76;69.92;101018.25;4998065;28;102314;-54
2022/09/21 09:10:01;;;;;;;45.08;42.80;;;;;;;19.77;70.00;101008.03;5009497;28;103867;-55
2022/09/21 09:12:46;;;;;;;50.75;48.03;;;;;;;19.77;70.22;101014.38;5011976;28;102826;-54
2022/09/21 09:15:36;;;;;;;50.55;48.00;;;;;;;19.78;70.05;101010.44;5004249;28;102424;-55
2022/09/21 09:18:10;;;;;;;46.17;43.67;;;;;;;19.79;69.97;101011.25;5016021;28;102064;-54
2022/09/21 09:20:40;;;;;;;53.45;50.58;;;;;;;19.78;69.96;101013.22;5009396;28;103877;-53
2022/09/21 09:23:12;;;;;;;52.38;49.67;;;;;;;19.78;70.05;101018.75;4997263;28;102366;-54
2022/09/21 09:25:43;;;;;;;51.13;48.58;;;;;;;19.78;69.96;101013.22;5010564;28;102277;-54
2022/09/21 09:28:16;;;;;;;;;;;;;;;19.79;70.16;101017.59;5009427;28;102223;-53
2022/09/21 09:30:43;;;;;;;43.30;41.13;;;;;;;19.78;70.10;101007.69;5008370;28;107766;-53
2022/09/21 09:33:17;;;;;;;48.80;46.38;;;;;;;19.77;70.13;101008.84;5012767;28;102181;-53
2022/09/21 09:35:47;;;;;;;48.97;46.50;;;;;;;19.79;70.03;101005.75;5004931;28;102435;-53
2022/09/21 09:38:23;;;;;;;49.90;47.33;;;;;;;19.76;70.04;101003.63;5007384;28;102334;-53
2022/09/21 09:41:04;;;;;;;45.97;43.65;;;;;;;19.75;70.49;101008.34;5010503;28;103870;-54
2022/09/21 09:43:47;;;;;;;51.10;48.50;;;;;;;19.74;70.62;101008.69;5011327;28;102021;-54
2022/09/21 09:46:25;;;;;;;48.90;46.42;;;;;;;19.73;70.73;101010.63;5014774;28;102266;-53
2022/09/21 09:49:10;;;;;;;47.70;45.10;;;;;;;19.73;70.62;101007.88;5014683;28;102415;-54
2022/09/21 09:51:39;;;;;;;46.95;44.58;;;;;;;19.71;70.35;101004.59;5000401;28;103620;-53
2022/09/21 09:54:13;;;;;;;52.13;49.43;;;;;;;19.71;70.55;100996.31;5003411;28;102235;-54
2022/09/21 09:56:39;;;;;;;55.08;52.25;;;;;;;19.72;70.22;100995.19;5006264;28;102050;-54
2022/09/21 09:59:16;;;;;;;49.88;47.38;;;;;;;19.73;70.17;101002.34;5017432;28;102276;-54
2022/09/21 10:01:45;;;;;;;49.17;46.75;;;;;;;19.72;70.45;101000.69;5017230;28;103870;-54
2022/09/21 10:04:14;;;;;;;48.55;46.08;;;;;;;19.71;70.48;100998.28;5009400;28;101996;-53
2022/09/21 10:06:41;;;;;;;47.53;45.10;;;;;;;19.71;70.93;100996.31;5006986;28;102689;-54
2022/09/21 10:09:21;;;;;;;52.10;49.33;;;;;;;19.69;70.55;101001.38;5018626;28;102196;-54
2022/09/21 10:11:49;;;;;;;48.45;45.95;;;;;;;19.69;70.79;100998.63;5011145;28;108003;-53
2022/09/21 10:14:21;;;;;;;48.65;46.17;;;;;;;19.68;70.46;100996.97;5015218;28;102011;-54
2022/09/21 10:16:50;;;;;;;48.97;46.47;;;;;;;19.68;70.39;100997.78;5011650;28;102388;-53
2022/09/21 10:19:20;;;;;;;49.78;47.22;;;;;;;19.68;70.33;101005.25;5015783;28;102479;-53
2022/09/21 10:21:53;;;;;;;53.10;50.45;;;;;;;19.67;70.64;100989.84;4987701;28;103849;-53
2022/09/21 10:24:22;;;;;;;51.90;49.30;;;;;;;19.66;70.60;100985.47;4999952;28;102322;-53
2022/09/21 10:26:53;;;;;;;56.80;53.95;;;;;;;19.65;70.25;100992.09;5013513;28;102410;-53
2022/09/21 10:29:31;;;;;;;54.85;51.80;;;;;;;19.66;70.40;100990.97;5011933;28;102148;-53
2022/09/21 10:31:59;;;;;;;52.67;49.78;;;;;;;19.65;70.23;100981.06;4996287;28;103975;-53
2022/09/21 10:34:29;;;;;;;50.22;47.72;;;;;;;19.65;70.36;100978.28;4996742;28;104701;-53
2022/09/21 10:36:57;;;;;;;53.15;50.53;;;;;;;19.65;70.26;100981.88;4998254;28;101932;-53
2022/09/21 10:39:27;;;;;;;49.35;46.85;;;;;;;19.63;70.28;100981.41;4998941;28;102658;-53
2022/09/21 10:41:58;;;;;;;50.83;48.30;;;;;;;19.62;70.58;100984.47;4997587;28;105227;-53
2022/09/21 10:44:32;;;;;;;52.53;49.83;;;;;;;19.61;70.64;100978.09;4997794;28;104571;-53
2022/09/21 10:47:02;;;;;;;49.40;46.90;;;;;;;19.61;70.67;100988.34;5014688;28;101890;-53
2022/09/21 10:49:30;;;;;;;55.40;52.60;;;;;;;19.60;70.65;100982.00;4998602;28;102103;-53
2022/09/21 10:51:58;;;;;;;54.45;51.70;;;;;;;19.60;70.48;100975.69;4998224;28;103890;-53
2022/09/21 10:54:28;;;;;;;54.67;51.93;;;;;;;19.59;70.58;100974.06;4998665;28;102424;-54
2022/09/21 10:56:58;;;;;;;54.45;51.75;;;;;;;19.58;70.61;100983.47;4998493;28;102415;-53
2022/09/21 10:59:29;;;;;;;57.53;54.65;;;;;;;19.58;70.62;100970.50;4997042;28;102469;-53
2022/09/21 11:01:57;;;;;;;61.55;58.53;;;;;;;19.57;70.39;100973.56;5004950;28;103808;-54
2022/09/21 11:04:33;;;;;;;57.60;54.72;;;;;;;19.57;70.39;100976.31;5018126;28;102388;-53
2022/09/21 11:07:08;;;;;;;55.78;53.00;;;;;;;19.56;70.13;100967.25;4985630;28;102010;-53
2022/09/21 11:09:40;;;;;;;54.65;51.75;;;;;;;19.57;70.38;100965.28;4998474;28;102476;-53
2022/09/21 11:12:28;;;;;;;55.80;52.97;;;;;;;19.56;70.32;100960.91;5012191;28;104004;-53
2022/09/21 11:15:02;;;;;;;54.45;51.67;;;;;;;19.56;70.52;100964.47;5001101;28;101840;-54